sensor_id;sensor_type;location;lat;lon;timestamp;P1;durP1;ratioP1;P2;durP2;ratioP2
20080;SDS011;10200;49.232;9.222;2023-12-22T00:01:23;0.43;;;0.40;;
20080;SDS011;10200;49.232;9.222;2023-12-22T00:03:49;1.97;;;0.40;;
20080;SDS011;10200;49.232;9.222;2023-12-22T00:06:15;1.93;;;0.93;;
20080;SDS011;10200;49.232;9.222;2023-12-22T00:08:41;0.33;;;0.30;;
20080;SDS011;10200;49.232;9.222;2023-12-22T00:11:06;1.10;;;0.40;;
20080;SDS011;10200;49.232;9.222;2023-12-22T00:13:32;0.97;;;0.40;;
20080;SDS011;10200;49.232;9.222;2023-12-22T00:15:58;0.23;;;0.23;;
20080;SDS011;10200;49.232;9.222;2023-12-22T00:18:25;0.30;;;0.30;;
20080;SDS011;10200;49.232;9.222;2023-12-22T00:20:51;0.50;;;0.30;;
20080;SDS011;10200;49.232;9.222;2023-12-22T00:23:16;0.27;;;0.23;;
20080;SDS011;10200;49.232;9.222;2023-12-22T00:25:42;1.47;;;0.30;;
20080;SDS011;10200;49.232;9.222;2023-12-22T00:28:08;0.47;;;0.47;;
20080;SDS011;10200;49.232;9.222;2023-12-22T00:30:33;0.60;;;0.60;;
20080;SDS011;10200;49.232;9.222;2023-12-22T00:32:59;1.00;;;0.90;;
20080;SDS011;10200;49.232;9.222;2023-12-22T00:35:24;1.33;;;1.07;;
20080;SDS011;10200;49.232;9.222;2023-12-22T00:37:51;1.03;;;0.90;;
20080;SDS011;10200;49.232;9.222;2023-12-22T00:40:17;0.77;;;0.60;;
20080;SDS011;10200;49.232;9.222;2023-12-22T00:42:43;0.67;;;0.67;;
20080;SDS011;10200;49.232;9.222;2023-12-22T00:45:09;1.90;;;0.97;;
20080;SDS011;10200;49.232;9.222;2023-12-22T00:47:35;3.07;;;1.00;;
20080;SDS011;10200;49.232;9.222;2023-12-22T00:50:01;1.20;;;1.00;;
20080;SDS011;10200;49.232;9.222;2023-12-22T00:52:27;0.60;;;0.60;;
20080;SDS011;10200;49.232;9.222;2023-12-22T00:54:53;1.33;;;1.07;;
20080;SDS011;10200;49.232;9.222;2023-12-22T00:57:18;2.77;;;1.23;;
20080;SDS011;10200;49.232;9.222;2023-12-22T00:59:44;1.03;;;0.83;;
20080;SDS011;10200;49.232;9.222;2023-12-22T01:02:15;0.60;;;0.60;;
20080;SDS011;10200;49.232;9.222;2023-12-22T01:04:41;0.60;;;0.60;;
20080;SDS011;10200;49.232;9.222;2023-12-22T01:07:07;1.97;;;1.00;;
20080;SDS011;10200;49.232;9.222;2023-12-22T01:09:33;0.87;;;0.87;;
20080;SDS011;10200;49.232;9.222;2023-12-22T01:11:59;0.67;;;0.60;;
20080;SDS011;10200;49.232;9.222;2023-12-22T01:14:27;1.10;;;0.73;;
20080;SDS011;10200;49.232;9.222;2023-12-22T01:16:53;0.73;;;0.73;;
20080;SDS011;10200;49.232;9.222;2023-12-22T01:19:19;0.90;;;0.83;;
20080;SDS011;10200;49.232;9.222;2023-12-22T01:21:45;0.97;;;0.80;;
20080;SDS011;10200;49.232;9.222;2023-12-22T01:24:10;0.50;;;0.50;;
20080;SDS011;10200;49.232;9.222;2023-12-22T01:26:36;1.33;;;0.70;;
20080;SDS011;10200;49.232;9.222;2023-12-22T01:29:01;1.77;;;0.60;;
20080;SDS011;10200;49.232;9.222;2023-12-22T01:31:27;1.10;;;0.83;;
20080;SDS011;10200;49.232;9.222;2023-12-22T01:33:53;0.90;;;0.87;;
20080;SDS011;10200;49.232;9.222;2023-12-22T01:36:18;0.60;;;0.60;;
20080;SDS011;10200;49.232;9.222;2023-12-22T01:38:44;2.70;;;0.60;;
20080;SDS011;10200;49.232;9.222;2023-12-22T01:41:09;1.70;;;0.70;;
20080;SDS011;10200;49.232;9.222;2023-12-22T01:43:35;0.77;;;0.40;;
20080;SDS011;10200;49.232;9.222;2023-12-22T01:46:00;1.43;;;0.57;;
20080;SDS011;10200;49.232;9.222;2023-12-22T01:48:27;0.83;;;0.40;;
20080;SDS011;10200;49.232;9.222;2023-12-22T01:50:53;2.60;;;0.50;;
20080;SDS011;10200;49.232;9.222;2023-12-22T01:53:20;0.33;;;0.30;;
20080;SDS011;10200;49.232;9.222;2023-12-22T01:55:48;0.83;;;0.40;;
20080;SDS011;10200;49.232;9.222;2023-12-22T01:58:14;1.27;;;0.50;;
20080;SDS011;10200;49.232;9.222;2023-12-22T02:00:40;1.87;;;0.40;;
20080;SDS011;10200;49.232;9.222;2023-12-22T02:03:06;1.10;;;0.50;;
20080;SDS011;10200;49.232;9.222;2023-12-22T02:05:33;2.37;;;0.40;;
20080;SDS011;10200;49.232;9.222;2023-12-22T02:07:58;1.77;;;0.50;;
20080;SDS011;10200;49.232;9.222;2023-12-22T02:10:24;1.30;;;0.37;;
20080;SDS011;10200;49.232;9.222;2023-12-22T02:12:49;1.63;;;0.53;;
20080;SDS011;10200;49.232;9.222;2023-12-22T02:15:15;2.73;;;0.60;;
20080;SDS011;10200;49.232;9.222;2023-12-22T02:17:47;2.00;;;0.87;;
20080;SDS011;10200;49.232;9.222;2023-12-22T02:20:16;7.27;;;1.03;;
20080;SDS011;10200;49.232;9.222;2023-12-22T02:22:42;4.80;;;0.97;;
20080;SDS011;10200;49.232;9.222;2023-12-22T02:25:08;1.00;;;0.90;;
20080;SDS011;10200;49.232;9.222;2023-12-22T02:27:35;2.10;;;0.83;;
20080;SDS011;10200;49.232;9.222;2023-12-22T02:32:40;2.67;;;0.90;;
20080;SDS011;10200;49.232;9.222;2023-12-22T02:35:13;2.37;;;1.23;;
20080;SDS011;10200;49.232;9.222;2023-12-22T02:37:41;4.20;;;0.80;;
20080;SDS011;10200;49.232;9.222;2023-12-22T02:40:08;3.00;;;1.10;;
20080;SDS011;10200;49.232;9.222;2023-12-22T02:42:35;4.10;;;0.83;;
20080;SDS011;10200;49.232;9.222;2023-12-22T02:45:03;2.17;;;1.20;;
20080;SDS011;10200;49.232;9.222;2023-12-22T02:47:29;3.83;;;0.70;;
20080;SDS011;10200;49.232;9.222;2023-12-22T02:49:55;4.57;;;1.20;;
20080;SDS011;10200;49.232;9.222;2023-12-22T02:52:20;4.13;;;1.20;;
20080;SDS011;10200;49.232;9.222;2023-12-22T02:54:46;3.33;;;1.37;;
20080;SDS011;10200;49.232;9.222;2023-12-22T02:57:12;3.63;;;1.03;;
20080;SDS011;10200;49.232;9.222;2023-12-22T02:59:38;3.73;;;1.07;;
20080;SDS011;10200;49.232;9.222;2023-12-22T03:02:04;5.47;;;1.77;;
20080;SDS011;10200;49.232;9.222;2023-12-22T03:04:29;1.80;;;0.80;;
20080;SDS011;10200;49.232;9.222;2023-12-22T03:06:55;4.43;;;1.50;;
20080;SDS011;10200;49.232;9.222;2023-12-22T03:09:21;5.00;;;1.30;;
20080;SDS011;10200;49.232;9.222;2023-12-22T03:11:47;5.10;;;2.03;;
20080;SDS011;10200;49.232;9.222;2023-12-22T03:14:13;3.00;;;1.33;;
20080;SDS011;10200;49.232;9.222;2023-12-22T03:16:39;2.47;;;1.13;;
20080;SDS011;10200;49.232;9.222;2023-12-22T03:19:06;7.57;;;0.90;;
20080;SDS011;10200;49.232;9.222;2023-12-22T03:21:32;6.90;;;1.33;;
20080;SDS011;10200;49.232;9.222;2023-12-22T03:23:57;3.27;;;1.50;;
20080;SDS011;10200;49.232;9.222;2023-12-22T03:26:23;4.93;;;1.50;;
20080;SDS011;10200;49.232;9.222;2023-12-22T03:28:51;1.67;;;1.23;;
20080;SDS011;10200;49.232;9.222;2023-12-22T03:31:16;4.37;;;1.10;;
20080;SDS011;10200;49.232;9.222;2023-12-22T03:33:42;3.70;;;0.90;;
20080;SDS011;10200;49.232;9.222;2023-12-22T03:36:07;2.13;;;1.00;;
20080;SDS011;10200;49.232;9.222;2023-12-22T03:38:33;2.90;;;1.30;;
20080;SDS011;10200;49.232;9.222;2023-12-22T03:40:58;2.60;;;1.03;;
20080;SDS011;10200;49.232;9.222;2023-12-22T03:43:24;2.53;;;0.90;;
20080;SDS011;10200;49.232;9.222;2023-12-22T03:45:50;5.40;;;1.00;;
20080;SDS011;10200;49.232;9.222;2023-12-22T03:48:15;1.10;;;0.80;;
20080;SDS011;10200;49.232;9.222;2023-12-22T03:50:41;2.60;;;1.17;;
20080;SDS011;10200;49.232;9.222;2023-12-22T03:53:06;2.47;;;1.07;;
20080;SDS011;10200;49.232;9.222;2023-12-22T03:55:32;0.77;;;0.70;;
20080;SDS011;10200;49.232;9.222;2023-12-22T03:57:58;3.60;;;1.03;;
20080;SDS011;10200;49.232;9.222;2023-12-22T04:00:23;4.60;;;1.20;;
20080;SDS011;10200;49.232;9.222;2023-12-22T04:02:49;2.13;;;0.70;;
20080;SDS011;10200;49.232;9.222;2023-12-22T04:05:14;3.60;;;0.93;;
20080;SDS011;10200;49.232;9.222;2023-12-22T04:07:40;5.40;;;1.00;;
20080;SDS011;10200;49.232;9.222;2023-12-22T04:10:05;4.47;;;1.50;;
20080;SDS011;10200;49.232;9.222;2023-12-22T04:12:31;3.53;;;1.17;;
20080;SDS011;10200;49.232;9.222;2023-12-22T04:14:57;4.27;;;1.20;;
20080;SDS011;10200;49.232;9.222;2023-12-22T04:17:22;4.90;;;1.57;;
20080;SDS011;10200;49.232;9.222;2023-12-22T04:19:48;2.07;;;1.20;;
20080;SDS011;10200;49.232;9.222;2023-12-22T04:22:14;5.60;;;1.40;;
20080;SDS011;10200;49.232;9.222;2023-12-22T04:24:39;4.30;;;1.40;;
20080;SDS011;10200;49.232;9.222;2023-12-22T04:27:05;5.80;;;1.57;;
20080;SDS011;10200;49.232;9.222;2023-12-22T04:29:30;5.87;;;2.30;;
20080;SDS011;10200;49.232;9.222;2023-12-22T04:31:56;5.77;;;1.30;;
20080;SDS011;10200;49.232;9.222;2023-12-22T04:34:22;6.60;;;1.80;;
20080;SDS011;10200;49.232;9.222;2023-12-22T04:36:47;5.33;;;1.50;;
20080;SDS011;10200;49.232;9.222;2023-12-22T04:39:13;6.57;;;1.40;;
20080;SDS011;10200;49.232;9.222;2023-12-22T04:41:38;5.70;;;1.53;;
20080;SDS011;10200;49.232;9.222;2023-12-22T04:44:04;6.13;;;1.20;;
20080;SDS011;10200;49.232;9.222;2023-12-22T04:46:30;2.47;;;1.20;;
20080;SDS011;10200;49.232;9.222;2023-12-22T04:48:55;6.27;;;1.50;;
20080;SDS011;10200;49.232;9.222;2023-12-22T04:51:21;3.93;;;1.37;;
20080;SDS011;10200;49.232;9.222;2023-12-22T04:53:47;3.10;;;1.10;;
20080;SDS011;10200;49.232;9.222;2023-12-22T04:56:12;2.57;;;1.20;;
20080;SDS011;10200;49.232;9.222;2023-12-22T04:58:38;4.80;;;1.47;;
20080;SDS011;10200;49.232;9.222;2023-12-22T05:01:03;7.53;;;1.50;;
20080;SDS011;10200;49.232;9.222;2023-12-22T05:03:29;3.53;;;1.33;;
20080;SDS011;10200;49.232;9.222;2023-12-22T05:05:55;2.40;;;1.10;;
20080;SDS011;10200;49.232;9.222;2023-12-22T05:08:20;3.10;;;1.33;;
20080;SDS011;10200;49.232;9.222;2023-12-22T05:10:46;5.73;;;1.40;;
20080;SDS011;10200;49.232;9.222;2023-12-22T05:13:11;5.87;;;1.70;;
20080;SDS011;10200;49.232;9.222;2023-12-22T05:15:37;4.60;;;0.87;;
20080;SDS011;10200;49.232;9.222;2023-12-22T05:18:03;3.13;;;1.00;;
20080;SDS011;10200;49.232;9.222;2023-12-22T05:20:29;3.37;;;1.07;;
20080;SDS011;10200;49.232;9.222;2023-12-22T05:22:54;6.33;;;1.13;;
20080;SDS011;10200;49.232;9.222;2023-12-22T05:25:20;2.97;;;0.90;;
20080;SDS011;10200;49.232;9.222;2023-12-22T05:27:45;3.60;;;1.17;;
20080;SDS011;10200;49.232;9.222;2023-12-22T05:30:11;2.27;;;1.10;;
20080;SDS011;10200;49.232;9.222;2023-12-22T05:32:37;3.53;;;1.20;;
20080;SDS011;10200;49.232;9.222;2023-12-22T05:35:03;4.77;;;1.10;;
20080;SDS011;10200;49.232;9.222;2023-12-22T05:37:29;4.83;;;1.30;;
20080;SDS011;10200;49.232;9.222;2023-12-22T05:39:54;3.37;;;1.27;;
20080;SDS011;10200;49.232;9.222;2023-12-22T05:42:20;2.50;;;1.00;;
20080;SDS011;10200;49.232;9.222;2023-12-22T05:44:46;4.80;;;1.07;;
20080;SDS011;10200;49.232;9.222;2023-12-22T05:47:14;2.60;;;1.17;;
20080;SDS011;10200;49.232;9.222;2023-12-22T05:49:40;4.03;;;1.13;;
20080;SDS011;10200;49.232;9.222;2023-12-22T05:52:06;2.33;;;1.03;;
20080;SDS011;10200;49.232;9.222;2023-12-22T05:54:32;4.67;;;0.90;;
20080;SDS011;10200;49.232;9.222;2023-12-22T05:56:57;4.13;;;0.80;;
20080;SDS011;10200;49.232;9.222;2023-12-22T05:59:23;3.13;;;1.10;;
20080;SDS011;10200;49.232;9.222;2023-12-22T06:01:52;10.07;;;1.60;;
20080;SDS011;10200;49.232;9.222;2023-12-22T06:04:18;2.80;;;1.07;;
20080;SDS011;10200;49.232;9.222;2023-12-22T06:06:44;2.97;;;1.10;;
20080;SDS011;10200;49.232;9.222;2023-12-22T06:09:10;3.87;;;1.13;;
20080;SDS011;10200;49.232;9.222;2023-12-22T06:11:38;4.60;;;1.77;;
20080;SDS011;10200;49.232;9.222;2023-12-22T06:14:04;2.93;;;1.20;;
20080;SDS011;10200;49.232;9.222;2023-12-22T06:16:30;4.90;;;1.63;;
20080;SDS011;10200;49.232;9.222;2023-12-22T06:18:56;6.53;;;1.37;;
20080;SDS011;10200;49.232;9.222;2023-12-22T06:21:22;3.73;;;1.80;;
20080;SDS011;10200;49.232;9.222;2023-12-22T06:23:47;2.67;;;1.20;;
20080;SDS011;10200;49.232;9.222;2023-12-22T06:26:13;5.17;;;1.50;;
20080;SDS011;10200;49.232;9.222;2023-12-22T06:28:39;5.20;;;1.23;;
20080;SDS011;10200;49.232;9.222;2023-12-22T06:31:05;7.60;;;1.97;;
20080;SDS011;10200;49.232;9.222;2023-12-22T06:33:31;6.03;;;1.20;;
20080;SDS011;10200;49.232;9.222;2023-12-22T06:35:57;6.10;;;1.87;;
20080;SDS011;10200;49.232;9.222;2023-12-22T06:38:22;5.60;;;1.57;;
20080;SDS011;10200;49.232;9.222;2023-12-22T06:40:48;3.13;;;1.50;;
20080;SDS011;10200;49.232;9.222;2023-12-22T06:43:14;4.67;;;1.57;;
20080;SDS011;10200;49.232;9.222;2023-12-22T06:45:40;4.50;;;1.33;;
20080;SDS011;10200;49.232;9.222;2023-12-22T06:48:06;6.77;;;1.50;;
20080;SDS011;10200;49.232;9.222;2023-12-22T06:50:32;7.33;;;1.40;;
20080;SDS011;10200;49.232;9.222;2023-12-22T06:52:58;5.10;;;1.60;;
20080;SDS011;10200;49.232;9.222;2023-12-22T06:55:24;8.80;;;2.27;;
20080;SDS011;10200;49.232;9.222;2023-12-22T06:57:49;5.70;;;1.30;;
20080;SDS011;10200;49.232;9.222;2023-12-22T07:00:15;3.87;;;1.37;;
20080;SDS011;10200;49.232;9.222;2023-12-22T07:02:41;5.80;;;1.70;;
20080;SDS011;10200;49.232;9.222;2023-12-22T07:07:38;5.87;;;1.97;;
20080;SDS011;10200;49.232;9.222;2023-12-22T07:10:04;5.93;;;2.00;;
20080;SDS011;10200;49.232;9.222;2023-12-22T07:12:30;9.07;;;2.20;;
20080;SDS011;10200;49.232;9.222;2023-12-22T07:14:55;8.27;;;1.60;;
20080;SDS011;10200;49.232;9.222;2023-12-22T07:17:21;8.93;;;1.70;;
20080;SDS011;10200;49.232;9.222;2023-12-22T07:19:46;6.53;;;1.70;;
20080;SDS011;10200;49.232;9.222;2023-12-22T07:22:12;8.87;;;1.83;;
20080;SDS011;10200;49.232;9.222;2023-12-22T07:24:38;5.10;;;1.97;;
20080;SDS011;10200;49.232;9.222;2023-12-22T07:27:04;7.57;;;1.77;;
20080;SDS011;10200;49.232;9.222;2023-12-22T07:29:30;6.63;;;1.50;;
20080;SDS011;10200;49.232;9.222;2023-12-22T07:31:56;8.57;;;1.87;;
20080;SDS011;10200;49.232;9.222;2023-12-22T07:34:21;9.70;;;1.83;;
20080;SDS011;10200;49.232;9.222;2023-12-22T07:36:47;5.33;;;1.60;;
20080;SDS011;10200;49.232;9.222;2023-12-22T07:39:13;7.70;;;1.90;;
20080;SDS011;10200;49.232;9.222;2023-12-22T07:41:39;6.80;;;1.40;;
20080;SDS011;10200;49.232;9.222;2023-12-22T07:44:05;3.73;;;1.30;;
20080;SDS011;10200;49.232;9.222;2023-12-22T07:46:30;2.70;;;1.13;;
20080;SDS011;10200;49.232;9.222;2023-12-22T07:48:56;7.37;;;1.60;;
20080;SDS011;10200;49.232;9.222;2023-12-22T07:51:21;3.97;;;1.20;;
20080;SDS011;10200;49.232;9.222;2023-12-22T07:53:47;3.90;;;1.50;;
20080;SDS011;10200;49.232;9.222;2023-12-22T07:56:12;5.00;;;1.00;;
20080;SDS011;10200;49.232;9.222;2023-12-22T07:58:38;3.73;;;1.50;;
20080;SDS011;10200;49.232;9.222;2023-12-22T08:01:04;9.33;;;1.30;;
20080;SDS011;10200;49.232;9.222;2023-12-22T08:03:30;4.10;;;1.30;;
20080;SDS011;10200;49.232;9.222;2023-12-22T08:05:57;4.07;;;1.20;;
20080;SDS011;10200;49.232;9.222;2023-12-22T08:08:22;4.53;;;1.20;;
20080;SDS011;10200;49.232;9.222;2023-12-22T08:10:48;2.97;;;1.30;;
20080;SDS011;10200;49.232;9.222;2023-12-22T08:13:13;3.97;;;1.47;;
20080;SDS011;10200;49.232;9.222;2023-12-22T08:15:39;6.30;;;1.53;;
20080;SDS011;10200;49.232;9.222;2023-12-22T08:18:06;7.03;;;2.50;;
20080;SDS011;10200;49.232;9.222;2023-12-22T08:20:31;3.50;;;1.07;;
20080;SDS011;10200;49.232;9.222;2023-12-22T08:22:57;5.67;;;1.40;;
20080;SDS011;10200;49.232;9.222;2023-12-22T08:25:23;3.60;;;1.57;;
20080;SDS011;10200;49.232;9.222;2023-12-22T08:27:48;6.50;;;1.50;;
20080;SDS011;10200;49.232;9.222;2023-12-22T08:30:14;3.40;;;1.00;;
20080;SDS011;10200;49.232;9.222;2023-12-22T08:32:39;7.43;;;1.30;;
20080;SDS011;10200;49.232;9.222;2023-12-22T08:35:05;3.67;;;1.10;;
20080;SDS011;10200;49.232;9.222;2023-12-22T08:37:32;2.50;;;1.10;;
20080;SDS011;10200;49.232;9.222;2023-12-22T08:39:57;2.10;;;1.20;;
20080;SDS011;10200;49.232;9.222;2023-12-22T08:42:26;2.50;;;1.20;;
20080;SDS011;10200;49.232;9.222;2023-12-22T08:44:55;4.40;;;1.77;;
20080;SDS011;10200;49.232;9.222;2023-12-22T08:47:21;4.33;;;1.53;;
20080;SDS011;10200;49.232;9.222;2023-12-22T08:49:46;3.10;;;1.27;;
20080;SDS011;10200;49.232;9.222;2023-12-22T08:52:12;5.47;;;1.30;;
20080;SDS011;10200;49.232;9.222;2023-12-22T08:54:38;4.13;;;1.47;;
20080;SDS011;10200;49.232;9.222;2023-12-22T08:57:04;5.10;;;1.60;;
20080;SDS011;10200;49.232;9.222;2023-12-22T08:59:30;5.03;;;2.03;;
20080;SDS011;10200;49.232;9.222;2023-12-22T09:01:55;5.07;;;1.50;;
20080;SDS011;10200;49.232;9.222;2023-12-22T09:04:21;5.80;;;1.60;;
20080;SDS011;10200;49.232;9.222;2023-12-22T09:06:48;3.97;;;1.57;;
20080;SDS011;10200;49.232;9.222;2023-12-22T09:09:14;4.33;;;1.87;;
20080;SDS011;10200;49.232;9.222;2023-12-22T09:11:39;9.60;;;2.77;;
20080;SDS011;10200;49.232;9.222;2023-12-22T09:14:05;5.17;;;1.57;;
20080;SDS011;10200;49.232;9.222;2023-12-22T09:16:34;4.37;;;1.93;;
20080;SDS011;10200;49.232;9.222;2023-12-22T09:19:00;6.70;;;2.17;;
20080;SDS011;10200;49.232;9.222;2023-12-22T09:21:26;7.53;;;2.60;;
20080;SDS011;10200;49.232;9.222;2023-12-22T09:23:52;5.93;;;1.60;;
20080;SDS011;10200;49.232;9.222;2023-12-22T09:26:17;8.43;;;2.43;;
20080;SDS011;10200;49.232;9.222;2023-12-22T09:28:43;5.90;;;1.97;;
20080;SDS011;10200;49.232;9.222;2023-12-22T09:31:10;6.93;;;2.10;;
20080;SDS011;10200;49.232;9.222;2023-12-22T09:33:36;6.67;;;2.30;;
20080;SDS011;10200;49.232;9.222;2023-12-22T09:36:02;8.60;;;2.00;;
20080;SDS011;10200;49.232;9.222;2023-12-22T09:38:27;9.23;;;2.33;;
20080;SDS011;10200;49.232;9.222;2023-12-22T09:40:54;6.90;;;1.87;;
20080;SDS011;10200;49.232;9.222;2023-12-22T09:43:21;8.10;;;2.30;;
20080;SDS011;10200;49.232;9.222;2023-12-22T09:45:46;7.10;;;3.30;;
20080;SDS011;10200;49.232;9.222;2023-12-22T09:48:14;8.50;;;2.07;;
20080;SDS011;10200;49.232;9.222;2023-12-22T09:50:43;10.60;;;3.10;;
20080;SDS011;10200;49.232;9.222;2023-12-22T09:53:10;13.30;;;2.73;;
20080;SDS011;10200;49.232;9.222;2023-12-22T09:55:38;8.97;;;2.33;;
20080;SDS011;10200;49.232;9.222;2023-12-22T09:58:06;9.60;;;2.83;;
20080;SDS011;10200;49.232;9.222;2023-12-22T10:00:33;13.50;;;3.13;;
20080;SDS011;10200;49.232;9.222;2023-12-22T10:03:01;11.93;;;2.97;;
20080;SDS011;10200;49.232;9.222;2023-12-22T10:05:27;14.43;;;2.87;;
20080;SDS011;10200;49.232;9.222;2023-12-22T10:07:54;12.70;;;3.27;;
20080;SDS011;10200;49.232;9.222;2023-12-22T10:10:21;11.50;;;2.37;;
20080;SDS011;10200;49.232;9.222;2023-12-22T10:12:47;13.20;;;3.83;;
20080;SDS011;10200;49.232;9.222;2023-12-22T10:15:14;8.73;;;3.77;;
20080;SDS011;10200;49.232;9.222;2023-12-22T10:17:41;12.97;;;4.47;;
20080;SDS011;10200;49.232;9.222;2023-12-22T10:20:06;16.80;;;3.80;;
20080;SDS011;10200;49.232;9.222;2023-12-22T10:22:33;10.90;;;2.83;;
20080;SDS011;10200;49.232;9.222;2023-12-22T10:24:59;13.83;;;3.13;;
20080;SDS011;10200;49.232;9.222;2023-12-22T10:27:24;19.53;;;3.97;;
20080;SDS011;10200;49.232;9.222;2023-12-22T10:29:54;9.37;;;2.63;;
20080;SDS011;10200;49.232;9.222;2023-12-22T10:32:21;13.13;;;2.90;;
20080;SDS011;10200;49.232;9.222;2023-12-22T10:34:47;11.47;;;2.90;;
20080;SDS011;10200;49.232;9.222;2023-12-22T10:37:13;20.70;;;4.10;;
20080;SDS011;10200;49.232;9.222;2023-12-22T10:39:38;20.90;;;3.87;;
20080;SDS011;10200;49.232;9.222;2023-12-22T10:42:05;13.00;;;2.80;;
20080;SDS011;10200;49.232;9.222;2023-12-22T10:44:31;16.77;;;3.20;;
20080;SDS011;10200;49.232;9.222;2023-12-22T10:46:57;14.97;;;3.47;;
20080;SDS011;10200;49.232;9.222;2023-12-22T10:49:23;11.87;;;3.50;;
20080;SDS011;10200;49.232;9.222;2023-12-22T10:51:50;11.00;;;2.90;;
20080;SDS011;10200;49.232;9.222;2023-12-22T10:54:16;10.60;;;3.13;;
20080;SDS011;10200;49.232;9.222;2023-12-22T10:56:44;17.73;;;4.10;;
20080;SDS011;10200;49.232;9.222;2023-12-22T10:59:09;11.87;;;2.67;;
20080;SDS011;10200;49.232;9.222;2023-12-22T11:01:36;12.23;;;3.37;;
20080;SDS011;10200;49.232;9.222;2023-12-22T11:04:13;14.03;;;3.20;;
20080;SDS011;10200;49.232;9.222;2023-12-22T11:06:42;20.63;;;3.47;;
20080;SDS011;10200;49.232;9.222;2023-12-22T11:09:09;14.47;;;3.40;;
20080;SDS011;10200;49.232;9.222;2023-12-22T11:11:36;13.57;;;3.00;;
20080;SDS011;10200;49.232;9.222;2023-12-22T11:14:03;11.63;;;3.20;;
20080;SDS011;10200;49.232;9.222;2023-12-22T11:16:32;14.43;;;3.70;;
20080;SDS011;10200;49.232;9.222;2023-12-22T11:18:59;9.27;;;2.67;;
20080;SDS011;10200;49.232;9.222;2023-12-22T11:21:26;17.73;;;3.40;;
20080;SDS011;10200;49.232;9.222;2023-12-22T11:23:52;12.87;;;4.80;;
20080;SDS011;10200;49.232;9.222;2023-12-22T11:26:19;12.90;;;4.07;;
20080;SDS011;10200;49.232;9.222;2023-12-22T11:28:46;15.03;;;4.87;;
20080;SDS011;10200;49.232;9.222;2023-12-22T11:31:13;23.50;;;4.97;;
20080;SDS011;10200;49.232;9.222;2023-12-22T11:33:45;9.07;;;3.10;;
20080;SDS011;10200;49.232;9.222;2023-12-22T11:36:12;13.40;;;3.30;;
20080;SDS011;10200;49.232;9.222;2023-12-22T11:38:39;13.27;;;3.03;;
20080;SDS011;10200;49.232;9.222;2023-12-22T11:41:06;14.30;;;3.23;;
20080;SDS011;10200;49.232;9.222;2023-12-22T11:43:35;15.57;;;2.70;;
20080;SDS011;10200;49.232;9.222;2023-12-22T11:46:03;13.57;;;3.17;;
20080;SDS011;10200;49.232;9.222;2023-12-22T11:48:29;16.77;;;4.23;;
20080;SDS011;10200;49.232;9.222;2023-12-22T11:50:55;15.07;;;3.20;;
20080;SDS011;10200;49.232;9.222;2023-12-22T11:53:21;12.40;;;2.90;;
20080;SDS011;10200;49.232;9.222;2023-12-22T11:55:57;10.23;;;2.57;;
20080;SDS011;10200;49.232;9.222;2023-12-22T11:58:46;11.37;;;2.70;;
20080;SDS011;10200;49.232;9.222;2023-12-22T12:01:24;8.63;;;2.20;;
20080;SDS011;10200;49.232;9.222;2023-12-22T12:03:51;5.60;;;2.30;;
20080;SDS011;10200;49.232;9.222;2023-12-22T12:06:22;7.67;;;2.23;;
20080;SDS011;10200;49.232;9.222;2023-12-22T12:08:48;9.30;;;2.33;;
20080;SDS011;10200;49.232;9.222;2023-12-22T12:11:17;10.27;;;3.27;;
20080;SDS011;10200;49.232;9.222;2023-12-22T12:13:46;9.30;;;2.43;;
20080;SDS011;10200;49.232;9.222;2023-12-22T12:16:13;11.10;;;2.40;;
20080;SDS011;10200;49.232;9.222;2023-12-22T12:18:39;10.43;;;2.40;;
20080;SDS011;10200;49.232;9.222;2023-12-22T12:21:10;15.33;;;2.83;;
20080;SDS011;10200;49.232;9.222;2023-12-22T12:23:36;12.27;;;2.77;;
20080;SDS011;10200;49.232;9.222;2023-12-22T12:26:03;6.93;;;1.90;;
20080;SDS011;10200;49.232;9.222;2023-12-22T12:28:31;4.57;;;1.60;;
20080;SDS011;10200;49.232;9.222;2023-12-22T12:31:08;4.57;;;2.03;;
20080;SDS011;10200;49.232;9.222;2023-12-22T12:33:36;3.93;;;1.20;;
20080;SDS011;10200;49.232;9.222;2023-12-22T12:36:02;5.40;;;1.70;;
20080;SDS011;10200;49.232;9.222;2023-12-22T12:41:14;11.43;;;2.27;;
20080;SDS011;10200;49.232;9.222;2023-12-22T12:43:42;5.17;;;1.27;;
20080;SDS011;10200;49.232;9.222;2023-12-22T12:46:08;4.53;;;1.40;;
20080;SDS011;10200;49.232;9.222;2023-12-22T12:48:34;2.93;;;1.40;;
20080;SDS011;10200;49.232;9.222;2023-12-22T12:51:08;6.33;;;1.47;;
20080;SDS011;10200;49.232;9.222;2023-12-22T12:53:35;5.00;;;1.30;;
20080;SDS011;10200;49.232;9.222;2023-12-22T12:56:02;7.83;;;1.80;;
20080;SDS011;10200;49.232;9.222;2023-12-22T12:58:29;5.83;;;1.97;;
20080;SDS011;10200;49.232;9.222;2023-12-22T13:03:51;4.73;;;1.10;;
20080;SDS011;10200;49.232;9.222;2023-12-22T13:06:18;2.33;;;0.90;;
20080;SDS011;10200;49.232;9.222;2023-12-22T13:08:48;3.53;;;1.23;;
20080;SDS011;10200;49.232;9.222;2023-12-22T13:11:15;2.17;;;1.20;;
20080;SDS011;10200;49.232;9.222;2023-12-22T13:13:44;5.33;;;1.67;;
20080;SDS011;10200;49.232;9.222;2023-12-22T13:16:10;1.77;;;0.73;;
20080;SDS011;10200;49.232;9.222;2023-12-22T13:18:36;2.97;;;1.90;;
20080;SDS011;10200;49.232;9.222;2023-12-22T13:21:02;3.77;;;1.20;;
20080;SDS011;10200;49.232;9.222;2023-12-22T13:23:29;2.27;;;0.80;;
20080;SDS011;10200;49.232;9.222;2023-12-22T13:25:54;3.00;;;1.30;;
20080;SDS011;10200;49.232;9.222;2023-12-22T13:28:26;2.77;;;1.20;;
20080;SDS011;10200;49.232;9.222;2023-12-22T13:30:53;3.63;;;1.00;;
20080;SDS011;10200;49.232;9.222;2023-12-22T13:33:19;2.20;;;0.87;;
20080;SDS011;10200;49.232;9.222;2023-12-22T13:35:44;1.90;;;0.77;;
20080;SDS011;10200;49.232;9.222;2023-12-22T13:38:11;1.30;;;1.00;;
20080;SDS011;10200;49.232;9.222;2023-12-22T13:40:37;1.43;;;0.97;;
20080;SDS011;10200;49.232;9.222;2023-12-22T13:43:03;2.73;;;1.40;;
20080;SDS011;10200;49.232;9.222;2023-12-22T13:45:29;2.90;;;1.10;;
20080;SDS011;10200;49.232;9.222;2023-12-22T13:47:56;2.93;;;1.10;;
20080;SDS011;10200;49.232;9.222;2023-12-22T13:50:23;2.13;;;1.00;;
20080;SDS011;10200;49.232;9.222;2023-12-22T13:52:49;3.20;;;1.10;;
20080;SDS011;10200;49.232;9.222;2023-12-22T13:55:16;2.80;;;1.40;;
20080;SDS011;10200;49.232;9.222;2023-12-22T13:57:43;1.90;;;1.07;;
20080;SDS011;10200;49.232;9.222;2023-12-22T14:02:44;1.10;;;0.93;;
20080;SDS011;10200;49.232;9.222;2023-12-22T14:05:10;5.30;;;1.03;;
20080;SDS011;10200;49.232;9.222;2023-12-22T14:07:36;2.03;;;0.90;;
20080;SDS011;10200;49.232;9.222;2023-12-22T14:10:06;1.70;;;1.00;;
20080;SDS011;10200;49.232;9.222;2023-12-22T14:12:32;2.10;;;0.80;;
20080;SDS011;10200;49.232;9.222;2023-12-22T14:14:58;2.43;;;1.10;;
20080;SDS011;10200;49.232;9.222;2023-12-22T14:17:23;1.67;;;0.87;;
20080;SDS011;10200;49.232;9.222;2023-12-22T14:19:49;1.00;;;0.80;;
20080;SDS011;10200;49.232;9.222;2023-12-22T14:22:15;3.33;;;0.90;;
20080;SDS011;10200;49.232;9.222;2023-12-22T14:24:40;2.87;;;0.90;;
20080;SDS011;10200;49.232;9.222;2023-12-22T14:27:06;1.33;;;1.00;;
20080;SDS011;10200;49.232;9.222;2023-12-22T14:29:31;0.93;;;0.57;;
20080;SDS011;10200;49.232;9.222;2023-12-22T14:31:58;1.57;;;0.90;;
20080;SDS011;10200;49.232;9.222;2023-12-22T14:34:24;2.30;;;0.90;;
20080;SDS011;10200;49.232;9.222;2023-12-22T14:36:49;0.77;;;0.60;;
20080;SDS011;10200;49.232;9.222;2023-12-22T14:39:15;2.03;;;1.00;;
20080;SDS011;10200;49.232;9.222;2023-12-22T14:41:40;1.03;;;0.80;;
20080;SDS011;10200;49.232;9.222;2023-12-22T14:44:07;1.03;;;0.70;;
20080;SDS011;10200;49.232;9.222;2023-12-22T14:46:39;2.20;;;1.10;;
20080;SDS011;10200;49.232;9.222;2023-12-22T14:49:05;1.93;;;1.50;;
20080;SDS011;10200;49.232;9.222;2023-12-22T14:51:37;1.57;;;1.00;;
20080;SDS011;10200;49.232;9.222;2023-12-22T14:54:06;1.27;;;0.60;;